UHMA

Details ICAO UHMA (DYR)
Name Anadyr Ugolny Regl
Region Russia
Timezone Asia/Anadyr (UTC+12.0)
Plans Departing 129
Arriving 143
Stats Elevation 191 ft / 58 m (AMSL)
Location 64.735000° 177.742000°
Runways 1
Magnetic Variation 1.223° E
Sunrise 2018-12-15 22:09:49 UTC / 2018-12-16 10:09:49 Local
Sunset 2018-12-16 02:01:34 UTC / 2018-12-16 14:01:34 Local
Advertisement - Login to hide

Runways

ID Width Length Bearing (true/mag) Surface Threshold Overrun Markings Lighting
01 197 ft / 60 m 11,458 ft / 3,492 m 14.74° / 13.51° CONCRETE 0 ft / 0 m 249 ft / 76 m APP CENTERLINE EDGE THRESHOLD ALSF-II REIL-OMNI
19 197 ft / 60 m 11,458 ft / 3,492 m 194.75° / 193.53° CONCRETE 0 ft / 0 m 243 ft / 74 m APP CENTERLINE EDGE THRESHOLD ALSF-II REIL-OMNI

Map

Weather


0- 5 10 15 20 25 30 35+ Temperature / °C

Clouds and Precipitation
Forecast for 2018-12-16 00:00 UTC. Updated 5 hours ago

Ground ~20,000 ft ~40,000 ft Winds

METAR

UHMA 160300Z 34006MPS 2300 1200N BR FEW001 M37/M40 Q1012 R01/////// NOSIG RMK END R01/35006MPS QBB050 QFE755/1007

TAF

TAF UHMA 160141Z 1603/1703 36006MPS 5000 BR SCT030 TEMPO 1603/1703 32003MPS 2000 BR SCT005 BKN015

Frequencies

Ground 124.10 MHz Anadyr Ground
Unicom 126.20 MHz Anadyr Radar
Recorded 125.40 MHz Anadyr ATIS
Tower 124.00 MHz Anadyr Tower
Warning: Do not use this data for real-world aviation or navigation. No guarantee of current accuracy is given.